Time;durP1;ratioP1;P1;durP2;ratioP2;P2;SDS_P1;SDS_P2;PMS_P1;PMS_P2;Temp;Humidity;BMP_temperature;BMP_pressure;BME280_temperature;BME280_humidity;BME280_pressure;Samples;Min_cycle;Max_cycle;Signal;HPM_P1;HPM_P2
2021/10/13 00:05:02;;;;;;;1.67;0.80;;;18.00;33.20;;;;;;20805889;28;80796;-75
2021/10/13 00:15:08;;;;;;;2.30;0.98;;;17.70;33.80;;;;;;20805223;28;80751;-69
2021/10/13 00:25:10;;;;;;;1.88;0.90;;;17.50;34.30;;;;;;20804183;28;80824;-74
2021/10/13 00:35:12;;;;;;;7.07;1.40;;;17.30;35.50;;;;;;20804467;28;81910;-75
2021/10/13 00:45:14;;;;;;;4.68;1.10;;;17.00;36.00;;;;;;20803180;28;80900;-69
2021/10/13 00:55:20;;;;;;;2.03;0.95;;;16.90;36.10;;;;;;20800838;28;81803;-73
2021/10/13 01:05:29;;;;;;;1.83;0.85;;;16.80;35.20;;;;;;20801437;28;80528;-73
2021/10/13 01:15:59;;;;;;;1.73;0.90;;;16.70;35.90;;;;;;20802675;28;80936;-69
2021/10/13 01:26:26;;;;;;;5.43;1.60;;;16.50;35.90;;;;;;20800832;28;80283;-70
2021/10/13 01:36:34;;;;;;;3.45;1.30;;;16.50;36.30;;;;;;20798585;28;80715;-70
2021/10/13 01:46:45;;;;;;;4.05;2.03;;;16.20;36.80;;;;;;20799750;28;82226;-70
2021/10/13 01:56:53;;;;;;;3.67;2.45;;;15.90;41.90;;;;;;20799890;28;81909;-71
2021/10/13 02:07:12;;;;;;;7.65;2.30;;;15.50;45.50;;;;;;20798155;28;80763;-70
2021/10/13 02:17:22;;;;;;;6.53;3.05;;;15.00;48.00;;;;;;20797321;28;81123;-69
2021/10/13 02:27:32;;;;;;;6.97;2.00;;;14.90;49.20;;;;;;20798539;28;80602;-70
2021/10/13 02:37:35;;;;;;;4.38;2.40;;;14.70;50.40;;;;;;20797613;28;80974;-73
2021/10/13 02:47:50;;;;;;;3.42;2.35;;;14.40;51.10;;;;;;20810251;28;80974;-68
2021/10/13 02:58:14;;;;;;;21.40;2.67;;;14.40;51.60;;;;;;20810451;28;80329;-70
2021/10/13 03:08:21;;;;;;;5.70;2.40;;;14.20;52.00;;;;;;20808522;28;80995;-71
2021/10/13 03:18:36;;;;;;;4.72;2.30;;;14.10;51.60;;;;;;20809454;28;80955;-71
2021/10/13 03:28:46;;;;;;;3.35;1.50;;;14.10;50.50;;;;;;20807685;28;80683;-73
2021/10/13 03:39:09;;;;;;;6.82;2.67;;;14.00;50.20;;;;;;20807471;28;82639;-71
2021/10/13 03:49:31;;;;;;;4.25;2.15;;;13.90;51.80;;;;;;20807341;28;82119;-72
2021/10/13 03:59:45;;;;;;;6.70;2.28;;;13.50;53.20;;;;;;20804920;28;79870;-73
2021/10/13 04:09:52;;;;;;;4.35;2.45;;;13.20;54.60;;;;;;20805816;28;80676;-67
2021/10/13 04:20:09;;;;;;;4.68;2.20;;;13.10;55.20;;;;;;20804865;28;80836;-70
2021/10/13 04:30:17;;;;;;;4.70;2.67;;;12.90;56.00;;;;;;20809944;28;80723;-67
2021/10/13 04:40:23;;;;;;;7.68;2.40;;;12.80;56.30;;;;;;20879329;28;80165;-70
2021/10/13 04:50:36;;;;;;;5.78;2.35;;;12.60;56.10;;;;;;20884944;27;80775;-66
2021/10/13 05:00:39;;;;;;;6.83;3.10;;;12.40;56.60;;;;;;20877107;27;80536;-71
2021/10/13 05:10:42;;;;;;;6.70;3.75;;;12.30;56.80;;;;;;20878928;27;80516;-72
2021/10/13 05:20:46;;;;;;;4.80;2.65;;;12.40;56.90;;;;;;20884526;28;80839;-71
2021/10/13 05:30:54;;;;;;;8.00;2.95;;;12.20;57.10;;;;;;20885219;28;80803;-71
2021/10/13 05:40:57;;;;;;;5.63;2.63;;;11.90;57.60;;;;;;20856258;28;81892;-72
2021/10/13 05:51:00;;;;;;;9.77;3.73;;;11.80;58.10;;;;;;20866488;28;81362;-72
2021/10/13 06:01:05;;;;;;;4.85;2.97;;;11.80;58.20;;;;;;20863413;28;82235;-74
2021/10/13 06:11:07;;;;;;;10.50;3.17;;;11.70;58.40;;;;;;20871863;27;81650;-63
2021/10/13 06:21:11;;;;;;;8.68;3.33;;;11.60;58.80;;;;;;20882280;27;82288;-63
2021/10/13 06:31:14;;;;;;;10.10;3.35;;;11.60;59.20;;;;;;20886431;27;81333;-65
2021/10/13 06:41:18;;;;;;;8.18;3.67;;;11.50;59.50;;;;;;20881012;27;82121;-63
2021/10/13 06:51:21;;;;;;;8.23;3.30;;;11.50;59.60;;;;;;20880854;27;82163;-64
2021/10/13 07:01:24;;;;;;;13.93;3.83;;;11.60;59.70;;;;;;20884103;27;81894;-68
2021/10/13 07:11:27;;;;;;;6.03;3.38;;;11.70;59.60;;;;;;20882315;27;81957;-65
2021/10/13 07:21:30;;;;;;;12.07;4.40;;;11.90;59.00;;;;;;20877666;28;82114;-66
2021/10/13 07:31:50;;;;;;;8.85;4.15;;;12.30;58.10;;;;;;20881130;27;81071;-66
2021/10/13 07:42:09;;;;;;;16.13;3.95;;;12.60;56.80;;;;;;20881247;28;81483;-64
2021/10/13 07:52:35;;;;;;;7.38;3.80;;;13.00;55.30;;;;;;20879775;28;81369;-67
2021/10/13 08:03:00;;;;;;;8.73;3.80;;;13.40;53.80;;;;;;20877558;28;82136;-65
2021/10/13 08:13:26;;;;;;;6.20;3.80;;;13.80;52.70;;;;;;20878497;28;80678;-67
2021/10/13 08:23:52;;;;;;;13.80;3.53;;;14.40;50.60;;;;;;20876622;28;81922;-65
2021/10/13 08:34:13;;;;;;;10.52;3.05;;;14.90;48.70;;;;;;20878024;28;82338;-66
2021/10/13 08:44:15;;;;;;;7.38;2.20;;;15.30;45.60;;;;;;20877357;27;81739;-65
2021/10/13 08:54:19;;;;;;;2.00;1.00;;;16.00;41.50;;;;;;20877355;27;81232;-64
2021/10/13 09:04:20;;;;;;;6.85;1.20;;;16.60;36.60;;;;;;20873199;28;81443;-66
2021/10/13 09:14:26;;;;;;;4.85;1.02;;;17.40;34.90;;;;;;20875156;27;81124;-65
2021/10/13 09:24:29;;;;;;;3.60;1.05;;;18.10;33.10;;;;;;20874124;27;81832;-64
2021/10/13 09:34:30;;;;;;;5.57;1.17;;;18.70;31.60;;;;;;20870559;27;81669;-66
2021/10/13 09:44:35;;;;;;;5.07;0.93;;;20.10;29.30;;;;;;20872095;27;81293;-66
2021/10/13 09:54:42;;;;;;;3.65;0.93;;;23.80;25.20;;;;;;20875811;27;81260;-66
2021/10/13 10:04:45;;;;;;;2.88;1.00;;;26.00;22.20;;;;;;20883931;27;81646;-66
2021/10/13 10:14:48;;;;;;;4.88;1.40;;;28.20;19.90;;;;;;20883872;28;81692;-66
2021/10/13 10:24:54;;;;;;;5.95;1.17;;;31.00;17.60;;;;;;20882632;28;82001;-67
2021/10/13 10:35:06;;;;;;;1.17;0.50;;;33.40;15.90;;;;;;20880370;27;81186;-66
2021/10/13 10:45:15;;;;;;;5.03;0.75;;;36.40;13.80;;;;;;20881127;27;81831;-66
2021/10/13 10:55:17;;;;;;;6.53;1.27;;;38.70;12.30;;;;;;20881565;27;80779;-66
2021/10/13 11:05:22;;;;;;;8.05;7.13;;;40.70;11.70;;;;;;20882059;27;81092;-67
2021/10/13 11:15:26;;;;;;;5.80;1.10;;;42.40;10.60;;;;;;20880381;27;81466;-67
2021/10/13 11:25:30;;;;;;;4.43;1.08;;;41.40;11.20;;;;;;20879292;28;81558;-66
2021/10/13 11:35:33;;;;;;;4.10;1.00;;;33.90;14.90;;;;;;20876487;27;80926;-66
2021/10/13 11:45:44;;;;;;;4.53;0.85;;;35.70;13.80;;;;;;20877838;28;83285;-65
2021/10/13 11:55:46;;;;;;;1.37;0.40;;;38.60;12.50;;;;;;20873462;28;81394;-65
2021/10/13 12:05:54;;;;;;;2.65;0.80;;;36.20;13.20;;;;;;20878298;27;81729;-66
2021/10/13 12:16:01;;;;;;;1.15;0.68;;;32.60;15.40;;;;;;20872179;27;81813;-65
2021/10/13 12:26:35;;;;;;;3.25;1.45;;;32.00;15.60;;;;;;20872106;28;81124;-64
2021/10/13 12:36:53;;;;;;;2.63;0.90;;;34.70;14.00;;;;;;20872729;28;81312;-63
2021/10/13 12:47:07;;;;;;;3.58;0.98;;;35.50;13.60;;;;;;20872247;28;80666;-67
2021/10/13 12:57:14;;;;;;;3.55;1.20;;;35.00;14.00;;;;;;20869920;27;81234;-65
2021/10/13 13:07:17;;;;;;;2.13;1.13;;;38.60;12.30;;;;;;20873600;27;81845;-67
2021/10/13 13:17:21;;;;;;;2.60;0.88;;;41.00;10.90;;;;;;20869159;27;80916;-67
2021/10/13 13:27:24;;;;;;;33.30;8.13;;;35.80;13.10;;;;;;20871908;28;81755;-66
2021/10/13 13:37:26;;;;;;;7.32;2.67;;;33.20;14.80;;;;;;20871301;28;81641;-66
2021/10/13 13:47:29;;;;;;;8.80;3.67;;;31.90;16.10;;;;;;20868973;27;81391;-64
2021/10/13 13:57:30;;;;;;;8.13;1.95;;;32.90;16.20;;;;;;20867666;28;81949;-64
2021/10/13 14:07:34;;;;;;;2.33;1.20;;;35.40;14.20;;;;;;20868393;27;80802;-65
2021/10/13 14:17:37;;;;;;;2.03;1.25;;;37.10;13.50;;;;;;20870261;27;81320;-64
2021/10/13 14:27:39;;;;;;;2.47;1.10;;;34.70;14.00;;;;;;20804287;28;81776;-66
2021/10/13 14:37:41;;;;;;;2.63;1.27;;;33.00;15.30;;;;;;20802534;28;80750;-65
2021/10/13 14:47:44;;;;;;;6.13;1.42;;;32.40;16.00;;;;;;20814943;28;81777;-63
2021/10/13 14:57:46;;;;;;;1.45;0.60;;;32.10;16.70;;;;;;20808228;28;80006;-66
2021/10/13 15:07:49;;;;;;;3.30;1.27;;;32.50;15.70;;;;;;20823137;28;79965;-67
2021/10/13 15:17:54;;;;;;;4.18;0.90;;;35.80;14.10;;;;;;20841274;28;81854;-65
2021/10/13 15:27:56;;;;;;;2.42;0.95;;;35.50;14.00;;;;;;20815103;28;80708;-65
2021/10/13 15:37:59;;;;;;;2.92;1.00;;;32.80;15.40;;;;;;20819715;28;80897;-66
2021/10/13 15:48:02;;;;;;;1.25;0.52;;;35.00;14.30;;;;;;20827685;28;80714;-65
2021/10/13 15:58:06;;;;;;;2.45;0.70;;;35.50;13.60;;;;;;20805232;28;80659;-63
2021/10/13 16:08:08;;;;;;;2.83;0.60;;;30.50;16.80;;;;;;20818795;28;82005;-65
2021/10/13 16:18:11;;;;;;;1.98;0.45;;;28.40;17.70;;;;;;20804841;28;82258;-64
2021/10/13 16:28:13;;;;;;;1.88;0.60;;;27.30;18.10;;;;;;20805145;28;81727;-64
2021/10/13 16:38:16;;;;;;;4.10;3.13;;;26.60;18.70;;;;;;20816393;28;80843;-65
2021/10/13 16:48:18;;;;;;;2.78;0.80;;;26.00;19.90;;;;;;20817091;28;81832;-66
2021/10/13 16:58:20;;;;;;;4.20;1.10;;;25.50;20.40;;;;;;20800781;28;81868;-65
2021/10/13 17:08:23;;;;;;;5.13;2.83;;;25.00;21.70;;;;;;20824970;28;82002;-63
2021/10/13 17:18:26;;;;;;;4.63;1.35;;;24.60;23.20;;;;;;20799816;28;80297;-65
2021/10/13 17:28:28;;;;;;;6.28;1.90;;;24.10;23.10;;;;;;20798830;28;81804;-69
2021/10/13 17:38:30;;;;;;;3.33;1.38;;;23.70;24.30;;;;;;20794716;28;80813;-71
2021/10/13 17:48:32;;;;;;;4.07;1.80;;;23.30;24.60;;;;;;20815139;28;80238;-71
2021/10/13 17:58:34;;;;;;;9.90;2.50;;;22.90;25.50;;;;;;20801580;28;80248;-69
2021/10/13 18:08:36;;;;;;;;;;;22.50;25.60;;;;;;20852691;27;80846;-70
2021/10/13 18:18:37;;;;;;;8.50;2.50;;;22.00;26.30;;;;;;20843880;28;81803;-71
2021/10/13 18:28:39;;;;;;;8.60;3.92;;;21.70;27.20;;;;;;20811376;28;79915;-68
2021/10/13 18:38:41;;;;;;;;;;;21.50;28.20;;;;;;20852372;28;79886;-71
2021/10/13 18:48:43;;;;;;;17.27;6.40;;;21.10;28.70;;;;;;20830091;28;81884;-70
2021/10/13 18:58:45;;;;;;;16.92;6.15;;;20.80;29.90;;;;;;20809417;28;80000;-68
2021/10/13 19:08:46;;;;;;;12.20;5.57;;;20.70;29.40;;;;;;20808453;28;80689;-70
2021/10/13 19:18:52;;;;;;;12.07;4.50;;;20.60;30.40;;;;;;20821115;28;80057;-68
2021/10/13 19:28:54;;;;;;;9.95;2.90;;;20.40;30.30;;;;;;20820193;28;81618;-69
2021/10/13 19:38:56;;;;;;;8.10;3.00;;;20.20;30.00;;;;;;20837623;28;80945;-69
2021/10/13 19:48:58;;;;;;;6.97;2.27;;;19.90;30.30;;;;;;20885670;27;80461;-72
2021/10/13 19:59:00;;;;;;;9.07;2.72;;;19.70;30.60;;;;;;20889938;28;81122;-69
2021/10/13 20:09:02;;;;;;;8.73;2.90;;;19.40;31.00;;;;;;20890172;28;80605;-70
2021/10/13 20:19:04;;;;;;;4.77;1.80;;;19.00;31.50;;;;;;20880560;28;82076;-71
2021/10/13 20:29:06;;;;;;;5.85;3.08;;;18.90;31.90;;;;;;20810472;27;81856;-70
2021/10/13 20:39:08;;;;;;;4.67;2.00;;;18.60;32.40;;;;;;20860581;27;80342;-71
2021/10/13 20:49:09;;;;;;;8.83;2.97;;;18.60;32.40;;;;;;20802330;28;81991;-71
2021/10/13 20:59:15;;;;;;;11.47;2.57;;;18.50;32.80;;;;;;20802620;28;80768;-68
2021/10/13 21:09:17;;;;;;;4.55;1.58;;;18.20;33.10;;;;;;20812899;28;81926;-69
2021/10/13 21:19:18;;;;;;;4.25;1.50;;;17.90;33.50;;;;;;20813478;28;81850;-69
2021/10/13 21:29:20;;;;;;;5.22;1.67;;;17.60;34.00;;;;;;20802522;28;81754;-69
2021/10/13 21:39:23;;;;;;;6.50;1.73;;;17.50;34.30;;;;;;20812664;28;80673;-69
2021/10/13 21:49:25;;;;;;;8.77;1.77;;;17.30;34.80;;;;;;20824828;28;81984;-71
2021/10/13 21:59:27;;;;;;;11.00;1.57;;;17.10;35.10;;;;;;20898198;28;81797;-71
2021/10/13 22:09:29;;;;;;;9.13;1.73;;;16.90;35.60;;;;;;20892285;28;81723;-69
2021/10/13 22:19:31;;;;;;;3.70;1.10;;;16.80;35.90;;;;;;20819964;27;80609;-68
2021/10/13 22:29:34;;;;;;;9.98;1.88;;;16.50;36.20;;;;;;20811115;28;80759;-69
2021/10/13 22:39:37;;;;;;;3.17;1.10;;;16.30;36.80;;;;;;20810082;28;80785;-68
2021/10/13 22:49:38;;;;;;;4.75;1.27;;;16.10;37.20;;;;;;20810685;28;80880;-72
2021/10/13 22:59:40;;;;;;;2.93;1.33;;;16.00;37.40;;;;;;20836213;28;81281;-70
2021/10/13 23:09:43;;;;;;;8.50;1.40;;;15.90;37.30;;;;;;20809434;28;80049;-68
2021/10/13 23:19:45;;;;;;;10.73;1.40;;;15.70;37.80;;;;;;20809058;28;80602;-70
2021/10/13 23:29:46;;;;;;;3.85;1.10;;;15.50;38.00;;;;;;20847504;28;81868;-70
2021/10/13 23:39:48;;;;;;;4.10;1.17;;;15.40;38.50;;;;;;20871214;28;80036;-71
2021/10/13 23:49:50;;;;;;;5.03;1.40;;;15.20;39.20;;;;;;20889870;28;81891;-70
2021/10/13 23:59:52;;;;;;;2.78;0.93;;;15.00;39.60;;;;;;20889639;27;80213;-70
